Irini — SYZA — position and weather

sailwx.info

Track history (hours):
 
Tides and Currents Weather Stations Pressure Air Temp Water Temp Dewpoint Dewpoint Depression Visibility Wind Speed Wind Dir Waves Ship Positions

Irini

Last reported at 2015-Mar-06 09:24 UTC. Time now 2015-Mar-06 20:03 UTC.
Position N 34°43' E 033°28'.

Length 137 m; draft 7.4 m.

Type: Ship (hazmat cat A). MMSI: 240052000.

Date/timePositionNaut miles runAvg speedWind from/ knotsBaromVisibWave heightAir tempDewpointWater temp
2015-Mar-06 09:24N 34°43' E 033°28'910.3
2015-Mar-06 08:33N 34°39' E 033°19'10 9.9
2015-Mar-06 07:33N 34°34' E 033°08'10 9.6
2015-Mar-06 06:33N 34°31' E 032°57'1010.0
2015-Mar-06 05:33N 34°34' E 032°45'1111.1
2015-Mar-06 04:34N 34°38' E 032°33'34510.7
2015-Mar-04 20:21N 36°43' E 025°57'911.5
2015-Mar-04 19:33N 36°44' E 025°45'1411.5
2015-Mar-04 18:20N 36°47' E 025°28'4110.7
2015-Mar-04 14:26N 37°06' E 024°42'55 8.7
2015-Mar-04 08:10N 37°37' E 023°46'711.5
2015-Mar-04 07:33N 37°43' E 023°41'1111.4
2015-Mar-04 06:33N 37°54' E 023°37'8 8.4
2015-Mar-04 05:33N 38°01' E 023°32'0 0.2
2015-Mar-04 04:32N 38°01' E 023°31'0 0.0
2015-Mar-04 03:32N 38°01' E 023°31'0 0.0
2015-Mar-04 02:29N 38°01' E 023°31'0 0.0
2015-Mar-04 01:32N 38°01' E 023°31'0 0.0
2015-Mar-04 00:26N 38°01' E 023°31'0 0.0
2015-Mar-03 23:32N 38°01' E 023°32'0 0.0
2015-Mar-03 22:29N 38°01' E 023°31'0 0.1
2015-Mar-03 21:32N 38°01' E 023°31'0 0.0
2015-Mar-03 20:32N 38°01' E 023°31'1 0.8
2015-Mar-03 19:33N 38°02' E 023°31'0 0.3
2015-Mar-03 18:32N 38°02' E 023°31'0 0.0
2015-Mar-03 17:29N 38°02' E 023°31'0 0.0
2015-Mar-03 16:32N 38°02' E 023°31'0 0.0
2015-Mar-03 15:29N 38°02' E 023°31'0 0.0
2015-Mar-03 14:23N 38°02' E 023°31'0 0.0
2015-Mar-03 13:29N 38°02' E 023°31'0 0.0
2015-Mar-03 12:32N 38°02' E 023°31'0 0.0
2015-Mar-03 11:32N 38°02' E 023°31'0 0.0
2015-Mar-03 10:29N 38°02' E 023°31'0 0.0
2015-Mar-03 09:29N 38°02' E 023°31'0 0.0
2015-Mar-03 08:32N 38°02' E 023°31'0 0.0
2015-Mar-03 07:26N 38°02' E 023°31'0 0.0
2015-Mar-03 06:26N 38°02' E 023°31'0 0.0
2015-Mar-03 05:23N 38°02' E 023°31'0 0.0
2015-Mar-03 04:26N 38°02' E 023°31'0 0.0
2015-Mar-03 03:26N 38°02' E 023°31'0 0.0
2015-Mar-03 02:32N 38°02' E 023°31'0 0.2
2015-Mar-03 01:34N 38°02' E 023°30'1 0.6
2015-Mar-03 00:32N 38°02' E 023°31'0 0.0
2015-Mar-02 23:23N 38°02' E 023°31'0 0.0
2015-Mar-02 22:29N 38°02' E 023°31'0 0.0
2015-Mar-02 21:32N 38°02' E 023°31'2 2.4
2015-Mar-02 20:33N 38°01' E 023°34'1 0.1
2015-Mar-02 08:13N 38°01' E 023°35'4 6.3
2015-Mar-02 07:33N 37°57' E 023°34'8 7.7
2015-Mar-02 06:34N 37°50' E 023°39'6 5.9
2015-Mar-02 05:33N 37°45' E 023°42'9 8.8
2015-Mar-02 04:34N 37°39' E 023°50'1411.4
2015-Mar-02 03:17N 37°37' E 024°08'1012.9
2015-Mar-02 02:33N 37°44' E 024°17'  
2015-Feb-27 16:30N 37°57' E 024°36'1010.9
2015-Feb-27 15:33N 37°49' E 024°27'2110.5
2015-Feb-27 13:31N 37°37' E 024°05'1110.8
2015-Feb-27 12:33N 37°37' E 023°52'10 9.8
2015-Feb-27 11:33N 37°42' E 023°42'1010.0
2015-Feb-27 10:33N 37°51' E 023°37'8 7.6
2015-Feb-27 09:33N 37°58' E 023°33'4 0.1
2015-Feb-25 09:10N 38°01' E 023°36'3 4.8
2015-Feb-25 08:33N 37°59' E 023°33'8 7.7
2015-Feb-25 07:34N 37°52' E 023°37'1111.0
2015-Feb-25 06:34N 37°43' E 023°44'1211.2
2015-Feb-25 05:31N 37°37' E 023°56'2511.2
2015-Feb-25 03:17N 37°49' E 024°24'3010.5
2015-Feb-25 00:25N 38°18' E 024°32'1011.7
2015-Feb-24 23:32N 38°27' E 024°26'  
Track history (hours):
 
Tides and Currents Weather Stations Pressure Air Temp Water Temp Dewpoint Dewpoint Depression Visibility Wind Speed Wind Dir Waves Ship Positions

Irini

Last reported at 2015-Mar-06 09:24 UTC. Time now 2015-Mar-06 20:03 UTC.
Position N 34°43' E 033°28'.

Length 137 m; draft 7.4 m.

Type: Ship (hazmat cat A). MMSI: 240052000.

Date/timePositionNaut miles runAvg speedWind from/ knotsBaromVisibWave heightAir tempDewpointWater temp
2015-Mar-06 09:24N 34°43' E 033°28'910.3
2015-Mar-06 08:33N 34°39' E 033°19'10 9.9
2015-Mar-06 07:33N 34°34' E 033°08'10 9.6
2015-Mar-06 06:33N 34°31' E 032°57'1010.0
2015-Mar-06 05:33N 34°34' E 032°45'1111.1
2015-Mar-06 04:34N 34°38' E 032°33'34510.7
2015-Mar-04 20:21N 36°43' E 025°57'911.5
2015-Mar-04 19:33N 36°44' E 025°45'1411.5
2015-Mar-04 18:20N 36°47' E 025°28'4110.7
2015-Mar-04 14:26N 37°06' E 024°42'55 8.7
2015-Mar-04 08:10N 37°37' E 023°46'711.5
2015-Mar-04 07:33N 37°43' E 023°41'1111.4
2015-Mar-04 06:33N 37°54' E 023°37'8 8.4
2015-Mar-04 05:33N 38°01' E 023°32'0 0.2
2015-Mar-04 04:32N 38°01' E 023°31'0 0.0
2015-Mar-04 03:32N 38°01' E 023°31'0 0.0
2015-Mar-04 02:29N 38°01' E 023°31'0 0.0
2015-Mar-04 01:32N 38°01' E 023°31'0 0.0
2015-Mar-04 00:26N 38°01' E 023°31'0 0.0
2015-Mar-03 23:32N 38°01' E 023°32'0 0.0
2015-Mar-03 22:29N 38°01' E 023°31'0 0.1
2015-Mar-03 21:32N 38°01' E 023°31'0 0.0
2015-Mar-03 20:32N 38°01' E 023°31'1 0.8
2015-Mar-03 19:33N 38°02' E 023°31'0 0.3
2015-Mar-03 18:32N 38°02' E 023°31'0 0.0
2015-Mar-03 17:29N 38°02' E 023°31'0 0.0
2015-Mar-03 16:32N 38°02' E 023°31'0 0.0
2015-Mar-03 15:29N 38°02' E 023°31'0 0.0
2015-Mar-03 14:23N 38°02' E 023°31'0 0.0
2015-Mar-03 13:29N 38°02' E 023°31'0 0.0
2015-Mar-03 12:32N 38°02' E 023°31'0 0.0
2015-Mar-03 11:32N 38°02' E 023°31'0 0.0
2015-Mar-03 10:29N 38°02' E 023°31'0 0.0
2015-Mar-03 09:29N 38°02' E 023°31'0 0.0
2015-Mar-03 08:32N 38°02' E 023°31'0 0.0
2015-Mar-03 07:26N 38°02' E 023°31'0 0.0
2015-Mar-03 06:26N 38°02' E 023°31'0 0.0
2015-Mar-03 05:23N 38°02' E 023°31'0 0.0
2015-Mar-03 04:26N 38°02' E 023°31'0 0.0
2015-Mar-03 03:26N 38°02' E 023°31'0 0.0
2015-Mar-03 02:32N 38°02' E 023°31'0 0.2
2015-Mar-03 01:34N 38°02' E 023°30'1 0.6
2015-Mar-03 00:32N 38°02' E 023°31'0 0.0
2015-Mar-02 23:23N 38°02' E 023°31'0 0.0
2015-Mar-02 22:29N 38°02' E 023°31'0 0.0
2015-Mar-02 21:32N 38°02' E 023°31'2 2.4
2015-Mar-02 20:33N 38°01' E 023°34'1 0.1
2015-Mar-02 08:13N 38°01' E 023°35'4 6.3
2015-Mar-02 07:33N 37°57' E 023°34'8 7.7
2015-Mar-02 06:34N 37°50' E 023°39'6 5.9
2015-Mar-02 05:33N 37°45' E 023°42'9 8.8
2015-Mar-02 04:34N 37°39' E 023°50'1411.4
2015-Mar-02 03:17N 37°37' E 024°08'1012.9
2015-Mar-02 02:33N 37°44' E 024°17'  
2015-Feb-27 16:30N 37°57' E 024°36'1010.9
2015-Feb-27 15:33N 37°49' E 024°27'2110.5
2015-Feb-27 13:31N 37°37' E 024°05'1110.8
2015-Feb-27 12:33N 37°37' E 023°52'10 9.8
2015-Feb-27 11:33N 37°42' E 023°42'1010.0
2015-Feb-27 10:33N 37°51' E 023°37'8 7.6
2015-Feb-27 09:33N 37°58' E 023°33'4 0.1
2015-Feb-25 09:10N 38°01' E 023°36'3 4.8
2015-Feb-25 08:33N 37°59' E 023°33'8 7.7
2015-Feb-25 07:34N 37°52' E 023°37'1111.0
2015-Feb-25 06:34N 37°43' E 023°44'1211.2
2015-Feb-25 05:31N 37°37' E 023°56'2511.2
2015-Feb-25 03:17N 37°49' E 024°24'3010.5
2015-Feb-25 00:25N 38°18' E 024°32'1011.7
2015-Feb-24 23:32N 38°27' E 024°26'  

Dump ship's entire track history